sensor_id;sensor_type;location;lat;lon;timestamp;pressure;altitude;pressure_sealevel;temperature;humidity
72921;BME280;61064;51.654;5.476;2022-12-16T00:01:20;101074.97;;;-2.44;80.97
72921;BME280;61064;51.654;5.476;2022-12-16T00:03:48;101080.28;;;-2.43;80.73
72921;BME280;61064;51.654;5.476;2022-12-16T00:06:15;101071.41;;;-2.46;80.60
72921;BME280;61064;51.654;5.476;2022-12-16T00:08:40;101095.50;;;-2.36;80.73
72921;BME280;61064;51.654;5.476;2022-12-16T00:11:07;101077.56;;;-2.44;80.69
72921;BME280;61064;51.654;5.476;2022-12-16T00:13:39;101086.56;;;-2.39;80.88
72921;BME280;61064;51.654;5.476;2022-12-16T00:16:08;101089.28;;;-2.38;80.91
72921;BME280;61064;51.654;5.476;2022-12-16T00:18:35;101104.59;;;-2.29;81.10
72921;BME280;61064;51.654;5.476;2022-12-16T00:21:02;101077.97;;;-2.38;80.81
72921;BME280;61064;51.654;5.476;2022-12-16T00:23:28;101085.97;;;-2.35;80.89
72921;BME280;61064;51.654;5.476;2022-12-16T00:25:54;101103.56;;;-2.18;80.96
72921;BME280;61064;51.654;5.476;2022-12-16T00:28:19;101038.97;;;-2.52;80.87
72921;BME280;61064;51.654;5.476;2022-12-16T00:30:53;101099.50;;;-2.13;81.01
72921;BME280;61064;51.654;5.476;2022-12-16T00:33:20;101011.75;;;-2.57;80.86
72921;BME280;61064;51.654;5.476;2022-12-16T00:35:46;100974.25;;;-2.73;80.89
72921;BME280;61064;51.654;5.476;2022-12-16T00:38:13;101043.56;;;-2.33;81.10
72921;BME280;61064;51.654;5.476;2022-12-16T00:40:39;100977.72;;;-2.73;81.17
72921;BME280;61064;51.654;5.476;2022-12-16T00:43:07;101046.91;;;-2.21;81.17
72921;BME280;61064;51.654;5.476;2022-12-16T00:45:33;101094.59;;;-1.94;81.01
72921;BME280;61064;51.654;5.476;2022-12-16T00:47:59;101019.69;;;-2.26;81.12
72921;BME280;61064;51.654;5.476;2022-12-16T00:50:25;101086.59;;;-1.82;81.10
72921;BME280;61064;51.654;5.476;2022-12-16T00:52:50;101076.91;;;-1.85;80.73
72921;BME280;61064;51.654;5.476;2022-12-16T00:55:17;101093.88;;;-1.77;81.34
72921;BME280;61064;51.654;5.476;2022-12-16T00:57:46;101041.19;;;-2.00;81.00
72921;BME280;61064;51.654;5.476;2022-12-16T01:00:13;101020.44;;;-2.14;81.11
72921;BME280;61064;51.654;5.476;2022-12-16T01:02:41;101106.59;;;-1.68;81.30
72921;BME280;61064;51.654;5.476;2022-12-16T01:05:08;101090.28;;;-1.64;81.12
72921;BME280;61064;51.654;5.476;2022-12-16T01:07:34;101093.97;;;-1.60;81.19
72921;BME280;61064;51.654;5.476;2022-12-16T01:10:00;101020.41;;;-1.99;80.98
72921;BME280;61064;51.654;5.476;2022-12-16T01:12:26;101042.81;;;-1.88;81.15
72921;BME280;61064;51.654;5.476;2022-12-16T01:14:58;100971.88;;;-2.26;81.28
72921;BME280;61064;51.654;5.476;2022-12-16T01:17:25;101056.31;;;-1.80;81.35
72921;BME280;61064;51.654;5.476;2022-12-16T01:19:51;101045.25;;;-1.91;81.23
72921;BME280;61064;51.654;5.476;2022-12-16T01:22:18;101115.47;;;-1.50;81.10
72921;BME280;61064;51.654;5.476;2022-12-16T01:24:43;101071.69;;;-1.70;81.14
72921;BME280;61064;51.654;5.476;2022-12-16T01:27:10;100998.56;;;-2.16;81.30
72921;BME280;61064;51.654;5.476;2022-12-16T01:29:38;101133.38;;;-1.41;81.48
72921;BME280;61064;51.654;5.476;2022-12-16T01:32:11;101084.19;;;-1.64;81.17
72921;BME280;61064;51.654;5.476;2022-12-16T01:34:37;101106.72;;;-1.50;81.27
72921;BME280;61064;51.654;5.476;2022-12-16T01:37:03;101049.28;;;-1.81;81.29
72921;BME280;61064;51.654;5.476;2022-12-16T01:39:28;101137.25;;;-1.35;81.37
72921;BME280;61064;51.654;5.476;2022-12-16T01:41:55;101126.25;;;-1.44;81.35
72921;BME280;61064;51.654;5.476;2022-12-16T01:44:24;101132.28;;;-1.30;81.23
72921;BME280;61064;51.654;5.476;2022-12-16T01:46:59;101142.00;;;-1.28;81.30
72921;BME280;61064;51.654;5.476;2022-12-16T01:49:43;101142.09;;;-1.26;81.60
72921;BME280;61064;51.654;5.476;2022-12-16T01:52:15;101118.44;;;-1.44;81.48
72921;BME280;61064;51.654;5.476;2022-12-16T01:54:49;101084.34;;;-1.61;81.33
72921;BME280;61064;51.654;5.476;2022-12-16T01:57:22;101146.50;;;-1.25;81.34
72921;BME280;61064;51.654;5.476;2022-12-16T01:59:54;101117.28;;;-1.34;81.54
72921;BME280;61064;51.654;5.476;2022-12-16T02:02:20;101152.00;;;-1.20;81.41
72921;BME280;61064;51.654;5.476;2022-12-16T02:04:49;101147.41;;;-1.24;81.55
72921;BME280;61064;51.654;5.476;2022-12-16T02:07:33;101062.66;;;-1.60;81.34
72921;BME280;61064;51.654;5.476;2022-12-16T02:09:58;101106.13;;;-1.46;81.29
72921;BME280;61064;51.654;5.476;2022-12-16T02:12:40;101164.69;;;-1.12;81.63
72921;BME280;61064;51.654;5.476;2022-12-16T02:15:24;101164.75;;;-1.10;81.36
72921;BME280;61064;51.654;5.476;2022-12-16T02:23:52;101159.28;;;-1.15;81.26
72921;BME280;61064;51.654;5.476;2022-12-16T02:29:57;101169.44;;;-1.05;81.18
72921;BME280;61064;51.654;5.476;2022-12-16T02:32:31;101173.84;;;-1.04;81.39
72921;BME280;61064;51.654;5.476;2022-12-16T02:37:55;101170.53;;;-1.01;81.51
72921;BME280;61064;51.654;5.476;2022-12-16T02:40:40;101127.25;;;-1.27;81.18
72921;BME280;61064;51.654;5.476;2022-12-16T02:43:13;101183.75;;;-0.98;81.37
72921;BME280;61064;51.654;5.476;2022-12-16T02:45:40;101164.84;;;-1.09;81.68
72921;BME280;61064;51.654;5.476;2022-12-16T02:48:06;101196.09;;;-0.96;81.38
72921;BME280;61064;51.654;5.476;2022-12-16T02:50:39;101116.63;;;-1.30;81.22
72921;BME280;61064;51.654;5.476;2022-12-16T02:53:06;101179.69;;;-0.93;81.51
72921;BME280;61064;51.654;5.476;2022-12-16T02:58:26;101182.28;;;-0.93;81.25
72921;BME280;61064;51.654;5.476;2022-12-16T03:01:54;101112.94;;;-1.34;81.60
72921;BME280;61064;51.654;5.476;2022-12-16T03:04:08;101147.38;;;-1.10;81.32
72921;BME280;61064;51.654;5.476;2022-12-16T03:06:38;101090.47;;;-1.46;81.30
72921;BME280;61064;51.654;5.476;2022-12-16T03:09:08;101153.75;;;-1.05;81.64
72921;BME280;61064;51.654;5.476;2022-12-16T03:11:43;101183.56;;;-0.87;81.85
72921;BME280;61064;51.654;5.476;2022-12-16T03:14:15;101125.78;;;-1.22;81.38
72921;BME280;61064;51.654;5.476;2022-12-16T03:16:49;101193.34;;;-0.82;81.51
72921;BME280;61064;51.654;5.476;2022-12-16T03:19:15;101151.09;;;-1.06;81.49
72921;BME280;61064;51.654;5.476;2022-12-16T03:21:54;101161.16;;;-0.98;81.43
72921;BME280;61064;51.654;5.476;2022-12-16T03:24:23;101194.44;;;-0.79;81.74
72921;BME280;61064;51.654;5.476;2022-12-16T03:27:19;101179.94;;;-0.89;81.79
72921;BME280;61064;51.654;5.476;2022-12-16T03:33:02;101079.03;;;-1.48;81.34
72921;BME280;61064;51.654;5.476;2022-12-16T03:35:48;101132.81;;;-1.21;81.81
72921;BME280;61064;51.654;5.476;2022-12-16T03:38:21;101060.97;;;-1.60;81.77
72921;BME280;61064;51.654;5.476;2022-12-16T03:40:49;101155.22;;;-1.10;81.67
72921;BME280;61064;51.654;5.476;2022-12-16T03:43:15;101124.47;;;-1.30;81.89
72921;BME280;61064;51.654;5.476;2022-12-16T03:45:44;101093.38;;;-1.56;81.72
72921;BME280;61064;51.654;5.476;2022-12-16T03:48:12;101085.44;;;-1.58;81.74
72921;BME280;61064;51.654;5.476;2022-12-16T03:50:43;101229.91;;;-0.82;81.82
72921;BME280;61064;51.654;5.476;2022-12-16T03:53:08;101225.84;;;-0.77;82.05
72921;BME280;61064;51.654;5.476;2022-12-16T03:55:34;101169.63;;;-1.16;81.97
72921;BME280;61064;51.654;5.476;2022-12-16T03:57:59;101191.06;;;-1.07;82.22
72921;BME280;61064;51.654;5.476;2022-12-16T04:00:25;101220.22;;;-0.85;81.94
72921;BME280;61064;51.654;5.476;2022-12-16T04:02:50;101212.03;;;-0.91;82.34
72921;BME280;61064;51.654;5.476;2022-12-16T04:05:16;101245.41;;;-0.71;82.24
72921;BME280;61064;51.654;5.476;2022-12-16T04:07:42;101225.59;;;-0.82;82.02
72921;BME280;61064;51.654;5.476;2022-12-16T04:10:08;101253.34;;;-0.69;82.34
72921;BME280;61064;51.654;5.476;2022-12-16T04:12:34;101223.72;;;-0.85;82.06
72921;BME280;61064;51.654;5.476;2022-12-16T04:15:18;101239.81;;;-0.77;82.16
72921;BME280;61064;51.654;5.476;2022-12-16T04:18:04;101238.31;;;-0.73;82.39
72921;BME280;61064;51.654;5.476;2022-12-16T04:20:54;101239.22;;;-0.73;82.28
72921;BME280;61064;51.654;5.476;2022-12-16T04:23:48;101256.09;;;-0.66;82.46
72921;BME280;61064;51.654;5.476;2022-12-16T04:26:33;101267.47;;;-0.66;82.22
72921;BME280;61064;51.654;5.476;2022-12-16T04:29:17;101245.25;;;-0.74;82.11
72921;BME280;61064;51.654;5.476;2022-12-16T04:31:43;101249.19;;;-0.80;82.44
72921;BME280;61064;51.654;5.476;2022-12-16T04:34:08;101277.91;;;-0.66;82.33
72921;BME280;61064;51.654;5.476;2022-12-16T04:37:01;101241.09;;;-0.85;82.24
72921;BME280;61064;51.654;5.476;2022-12-16T04:39:45;101272.69;;;-0.66;82.53
72921;BME280;61064;51.654;5.476;2022-12-16T04:42:30;101222.38;;;-0.93;82.26
72921;BME280;61064;51.654;5.476;2022-12-16T04:45:14;101278.91;;;-0.64;82.29
72921;BME280;61064;51.654;5.476;2022-12-16T04:47:58;101276.31;;;-0.64;82.64
72921;BME280;61064;51.654;5.476;2022-12-16T04:50:43;101277.38;;;-0.60;82.44
72921;BME280;61064;51.654;5.476;2022-12-16T04:53:27;101280.63;;;-0.64;82.35
72921;BME280;61064;51.654;5.476;2022-12-16T04:56:11;101283.75;;;-0.55;82.49
72921;BME280;61064;51.654;5.476;2022-12-16T04:58:55;101273.22;;;-0.57;82.81
72921;BME280;61064;51.654;5.476;2022-12-16T05:01:39;101288.38;;;-0.51;82.51
72921;BME280;61064;51.654;5.476;2022-12-16T05:04:23;101270.34;;;-0.61;82.49
72921;BME280;61064;51.654;5.476;2022-12-16T05:07:07;101285.47;;;-0.56;82.82
72921;BME280;61064;51.654;5.476;2022-12-16T05:09:51;101301.94;;;-0.42;82.87
72921;BME280;61064;51.654;5.476;2022-12-16T05:12:36;101249.38;;;-0.77;82.60
72921;BME280;61064;51.654;5.476;2022-12-16T05:15:19;101299.44;;;-0.40;83.08
72921;BME280;61064;51.654;5.476;2022-12-16T05:18:11;101286.91;;;-0.46;83.10
72921;BME280;61064;51.654;5.476;2022-12-16T05:21:00;101300.50;;;-0.37;82.73
72921;BME280;61064;51.654;5.476;2022-12-16T05:23:44;101306.72;;;-0.35;83.13
72921;BME280;61064;51.654;5.476;2022-12-16T05:26:29;101307.44;;;-0.37;82.79
72921;BME280;61064;51.654;5.476;2022-12-16T05:29:13;101304.72;;;-0.39;83.26
72921;BME280;61064;51.654;5.476;2022-12-16T05:31:57;101303.22;;;-0.35;83.09
72921;BME280;61064;51.654;5.476;2022-12-16T05:34:41;101312.09;;;-0.32;83.33
72921;BME280;61064;51.654;5.476;2022-12-16T05:37:25;101299.25;;;-0.44;83.42
72921;BME280;61064;51.654;5.476;2022-12-16T05:40:10;101328.34;;;-0.23;83.16
72921;BME280;61064;51.654;5.476;2022-12-16T05:42:54;101321.06;;;-0.28;83.34
72921;BME280;61064;51.654;5.476;2022-12-16T05:45:39;101332.81;;;-0.20;83.72
72921;BME280;61064;51.654;5.476;2022-12-16T05:48:23;101308.84;;;-0.28;83.57
72921;BME280;61064;51.654;5.476;2022-12-16T05:51:07;101337.16;;;-0.21;83.26
72921;BME280;61064;51.654;5.476;2022-12-16T05:53:51;101342.63;;;-0.16;83.53
72921;BME280;61064;51.654;5.476;2022-12-16T05:56:35;101337.97;;;-0.22;83.35
72921;BME280;61064;51.654;5.476;2022-12-16T05:59:19;101346.25;;;-0.14;83.43
72921;BME280;61064;51.654;5.476;2022-12-16T06:02:04;101349.88;;;-0.12;83.53
72921;BME280;61064;51.654;5.476;2022-12-16T06:04:48;101352.47;;;-0.12;84.00
72921;BME280;61064;51.654;5.476;2022-12-16T06:07:32;101340.13;;;-0.15;83.72
72921;BME280;61064;51.654;5.476;2022-12-16T06:10:16;101354.09;;;-0.14;83.58
72921;BME280;61064;51.654;5.476;2022-12-16T06:13:00;101336.50;;;-0.17;83.80
72921;BME280;61064;51.654;5.476;2022-12-16T06:15:45;101347.16;;;-0.14;83.99
72921;BME280;61064;51.654;5.476;2022-12-16T06:18:29;101345.19;;;-0.18;83.90
72921;BME280;61064;51.654;5.476;2022-12-16T06:21:13;101353.09;;;-0.16;84.05
72921;BME280;61064;51.654;5.476;2022-12-16T06:23:57;101358.06;;;-0.06;83.91
72921;BME280;61064;51.654;5.476;2022-12-16T06:26:41;101339.97;;;-0.18;84.10
72921;BME280;61064;51.654;5.476;2022-12-16T06:29:25;101348.97;;;-0.13;83.96
72921;BME280;61064;51.654;5.476;2022-12-16T06:32:09;101366.06;;;-0.03;84.21
72921;BME280;61064;51.654;5.476;2022-12-16T06:34:53;101351.63;;;-0.11;83.98
72921;BME280;61064;51.654;5.476;2022-12-16T06:37:36;101337.06;;;-0.22;84.40
72921;BME280;61064;51.654;5.476;2022-12-16T06:40:20;101366.63;;;-0.09;84.31
72921;BME280;61064;51.654;5.476;2022-12-16T06:43:04;101340.94;;;-0.16;84.46
72921;BME280;61064;51.654;5.476;2022-12-16T06:45:48;101360.50;;;-0.09;84.19
72921;BME280;61064;51.654;5.476;2022-12-16T06:48:32;101378.88;;;-0.08;84.10
72921;BME280;61064;51.654;5.476;2022-12-16T06:51:16;101380.34;;;-0.13;84.21
72921;BME280;61064;51.654;5.476;2022-12-16T06:54:00;101374.75;;;-0.19;84.16
72921;BME280;61064;51.654;5.476;2022-12-16T06:56:44;101380.69;;;-0.21;84.42
72921;BME280;61064;51.654;5.476;2022-12-16T06:59:28;101408.84;;;-0.17;84.33
72921;BME280;61064;51.654;5.476;2022-12-16T07:02:23;101391.09;;;-0.23;84.51
72921;BME280;61064;51.654;5.476;2022-12-16T07:05:07;101410.34;;;-0.21;84.52
72921;BME280;61064;51.654;5.476;2022-12-16T07:07:51;101430.72;;;-0.15;84.34
72921;BME280;61064;51.654;5.476;2022-12-16T07:10:35;101418.19;;;-0.21;84.67
72921;BME280;61064;51.654;5.476;2022-12-16T07:13:19;101428.50;;;-0.24;84.59
72921;BME280;61064;51.654;5.476;2022-12-16T07:16:03;101436.50;;;-0.21;84.43
72921;BME280;61064;51.654;5.476;2022-12-16T07:18:47;101430.75;;;-0.30;84.52
72921;BME280;61064;51.654;5.476;2022-12-16T07:21:31;101450.22;;;-0.25;84.55
72921;BME280;61064;51.654;5.476;2022-12-16T07:24:15;101431.28;;;-0.35;84.59
72921;BME280;61064;51.654;5.476;2022-12-16T07:26:59;101431.72;;;-0.43;84.71
72921;BME280;61064;51.654;5.476;2022-12-16T07:29:43;101456.41;;;-0.37;84.54
72921;BME280;61064;51.654;5.476;2022-12-16T07:32:27;101465.59;;;-0.44;84.37
72921;BME280;61064;51.654;5.476;2022-12-16T07:35:11;101439.47;;;-0.59;84.65
72921;BME280;61064;51.654;5.476;2022-12-16T07:37:55;101452.25;;;-0.63;84.28
72921;BME280;61064;51.654;5.476;2022-12-16T07:40:59;101456.91;;;-0.72;84.58
72921;BME280;61064;51.654;5.476;2022-12-16T07:43:43;101460.16;;;-0.76;84.53
72921;BME280;61064;51.654;5.476;2022-12-16T07:46:37;101465.91;;;-0.82;84.29
72921;BME280;61064;51.654;5.476;2022-12-16T07:49:21;101466.25;;;-0.91;84.45
72921;BME280;61064;51.654;5.476;2022-12-16T07:52:05;101460.44;;;-1.00;84.40
72921;BME280;61064;51.654;5.476;2022-12-16T07:54:56;101465.47;;;-1.03;84.63
72921;BME280;61064;51.654;5.476;2022-12-16T07:57:40;101476.72;;;-1.04;84.57
72921;BME280;61064;51.654;5.476;2022-12-16T08:00:24;101480.66;;;-1.10;84.36
72921;BME280;61064;51.654;5.476;2022-12-16T08:03:08;101482.88;;;-1.16;84.31
72921;BME280;61064;51.654;5.476;2022-12-16T08:05:52;101495.94;;;-1.16;84.21
72921;BME280;61064;51.654;5.476;2022-12-16T08:08:36;101495.66;;;-1.21;84.50
72921;BME280;61064;51.654;5.476;2022-12-16T08:11:20;101504.88;;;-1.26;84.51
72921;BME280;61064;51.654;5.476;2022-12-16T08:14:04;101499.50;;;-1.29;84.34
72921;BME280;61064;51.654;5.476;2022-12-16T08:16:48;101509.31;;;-1.25;84.67
72921;BME280;61064;51.654;5.476;2022-12-16T08:19:32;101506.59;;;-1.27;84.76
72921;BME280;61064;51.654;5.476;2022-12-16T08:22:18;101499.28;;;-1.32;84.65
72921;BME280;61064;51.654;5.476;2022-12-16T08:25:03;101512.53;;;-1.29;84.83
72921;BME280;61064;51.654;5.476;2022-12-16T08:27:53;101517.84;;;-1.28;84.76
72921;BME280;61064;51.654;5.476;2022-12-16T08:30:36;101529.47;;;-1.22;84.63
72921;BME280;61064;51.654;5.476;2022-12-16T08:33:20;101527.59;;;-1.25;84.65
72921;BME280;61064;51.654;5.476;2022-12-16T08:36:05;101525.66;;;-1.28;84.82
72921;BME280;61064;51.654;5.476;2022-12-16T08:38:49;101538.41;;;-1.19;84.71
72921;BME280;61064;51.654;5.476;2022-12-16T08:41:33;101518.34;;;-1.33;84.83
72921;BME280;61064;51.654;5.476;2022-12-16T08:44:19;101543.53;;;-1.20;84.67
72921;BME280;61064;51.654;5.476;2022-12-16T08:47:03;101533.50;;;-1.28;84.87
72921;BME280;61064;51.654;5.476;2022-12-16T08:49:48;101540.63;;;-1.25;85.22
72921;BME280;61064;51.654;5.476;2022-12-16T08:52:32;101554.69;;;-1.23;84.73
72921;BME280;61064;51.654;5.476;2022-12-16T08:55:16;101570.94;;;-1.14;85.14
72921;BME280;61064;51.654;5.476;2022-12-16T08:58:16;101564.03;;;-1.13;84.83
72921;BME280;61064;51.654;5.476;2022-12-16T09:01:00;101569.13;;;-1.15;84.85
72921;BME280;61064;51.654;5.476;2022-12-16T09:03:44;101552.88;;;-1.24;84.86
72921;BME280;61064;51.654;5.476;2022-12-16T09:06:28;101566.13;;;-1.21;84.84
72921;BME280;61064;51.654;5.476;2022-12-16T09:09:12;101576.47;;;-1.22;84.74
72921;BME280;61064;51.654;5.476;2022-12-16T09:11:56;101582.50;;;-1.23;85.29
72921;BME280;61064;51.654;5.476;2022-12-16T09:14:40;101595.13;;;-1.16;85.18
72921;BME280;61064;51.654;5.476;2022-12-16T09:17:24;101592.34;;;-1.19;85.03
72921;BME280;61064;51.654;5.476;2022-12-16T09:20:09;101593.25;;;-1.19;85.34
72921;BME280;61064;51.654;5.476;2022-12-16T09:22:53;101589.84;;;-1.18;85.53
72921;BME280;61064;51.654;5.476;2022-12-16T09:25:37;101590.75;;;-1.17;85.43
72921;BME280;61064;51.654;5.476;2022-12-16T09:28:20;101601.88;;;-1.07;85.51
72921;BME280;61064;51.654;5.476;2022-12-16T09:31:04;101600.19;;;-1.06;85.16
72921;BME280;61064;51.654;5.476;2022-12-16T09:34:08;101586.72;;;-1.12;85.34
72921;BME280;61064;51.654;5.476;2022-12-16T09:36:52;101612.31;;;-1.07;85.16
72921;BME280;61064;51.654;5.476;2022-12-16T09:39:36;101616.03;;;-1.03;85.48
72921;BME280;61064;51.654;5.476;2022-12-16T09:42:31;101619.72;;;-1.00;85.42
72921;BME280;61064;51.654;5.476;2022-12-16T09:51:32;101597.22;;;-1.11;85.53
72921;BME280;61064;51.654;5.476;2022-12-16T09:54:18;101622.56;;;-0.97;85.62
72921;BME280;61064;51.654;5.476;2022-12-16T09:57:03;101629.38;;;-0.99;85.47
72921;BME280;61064;51.654;5.476;2022-12-16T10:00:15;101647.38;;;-0.90;85.97
72921;BME280;61064;51.654;5.476;2022-12-16T10:03:07;101635.72;;;-0.95;85.58
72921;BME280;61064;51.654;5.476;2022-12-16T10:06:06;101636.00;;;-0.91;85.40
72921;BME280;61064;51.654;5.476;2022-12-16T10:09:00;101667.44;;;-0.76;85.38
72921;BME280;61064;51.654;5.476;2022-12-16T10:11:56;101646.25;;;-0.80;85.62
72921;BME280;61064;51.654;5.476;2022-12-16T10:14:49;101661.97;;;-0.66;85.59
72921;BME280;61064;51.654;5.476;2022-12-16T10:17:39;101660.16;;;-0.67;85.63
72921;BME280;61064;51.654;5.476;2022-12-16T10:20:40;101656.47;;;-0.70;85.37
72921;BME280;61064;51.654;5.476;2022-12-16T10:23:40;101666.41;;;-0.65;85.50
72921;BME280;61064;51.654;5.476;2022-12-16T10:26:55;101664.81;;;-0.63;85.60
72921;BME280;61064;51.654;5.476;2022-12-16T10:29:45;101663.00;;;-0.64;85.93
72921;BME280;61064;51.654;5.476;2022-12-16T10:32:34;101677.53;;;-0.54;85.60
72921;BME280;61064;51.654;5.476;2022-12-16T10:35:25;101678.56;;;-0.52;85.83
72921;BME280;61064;51.654;5.476;2022-12-16T10:38:35;101660.88;;;-0.56;85.91
72921;BME280;61064;51.654;5.476;2022-12-16T10:41:35;101679.03;;;-0.45;85.71
72921;BME280;61064;51.654;5.476;2022-12-16T10:47:11;101663.34;;;-0.45;85.30
72921;BME280;61064;51.654;5.476;2022-12-16T10:49:55;101676.00;;;-0.37;85.78
72921;BME280;61064;51.654;5.476;2022-12-16T10:52:53;101666.16;;;-0.42;85.64
72921;BME280;61064;51.654;5.476;2022-12-16T10:56:12;101677.53;;;-0.41;85.46
72921;BME280;61064;51.654;5.476;2022-12-16T10:59:03;101690.72;;;-0.39;85.33
72921;BME280;61064;51.654;5.476;2022-12-16T11:01:56;101674.81;;;-0.56;85.53
72921;BME280;61064;51.654;5.476;2022-12-16T11:04:40;101692.00;;;-0.46;85.53
72921;BME280;61064;51.654;5.476;2022-12-16T11:07:30;101686.09;;;-0.57;85.55
72921;BME280;61064;51.654;5.476;2022-12-16T11:13:23;101696.06;;;-0.51;85.88
72921;BME280;61064;51.654;5.476;2022-12-16T11:16:23;101691.72;;;-0.51;86.04
72921;BME280;61064;51.654;5.476;2022-12-16T11:19:22;101690.00;;;-0.50;85.91
72921;BME280;61064;51.654;5.476;2022-12-16T11:22:18;101688.78;;;-0.42;86.26
72921;BME280;61064;51.654;5.476;2022-12-16T11:25:13;101687.47;;;-0.35;86.23
72921;BME280;61064;51.654;5.476;2022-12-16T11:28:05;101688.28;;;-0.36;86.37
72921;BME280;61064;51.654;5.476;2022-12-16T11:30:58;101703.09;;;-0.22;86.13
72921;BME280;61064;51.654;5.476;2022-12-16T11:33:43;101666.44;;;-0.37;85.94
72921;BME280;61064;51.654;5.476;2022-12-16T11:36:29;101681.38;;;-0.21;86.00
72921;BME280;61064;51.654;5.476;2022-12-16T11:39:20;101697.34;;;-0.17;86.10
72921;BME280;61064;51.654;5.476;2022-12-16T11:42:06;101694.03;;;-0.14;85.89
72921;BME280;61064;51.654;5.476;2022-12-16T11:44:58;101683.09;;;-0.22;85.89
72921;BME280;61064;51.654;5.476;2022-12-16T11:50:33;101690.09;;;-0.08;86.27
72921;BME280;61064;51.654;5.476;2022-12-16T11:56:14;101681.44;;;-0.07;85.98
72921;BME280;61064;51.654;5.476;2022-12-16T11:59:02;101695.47;;;0.09;86.20
72921;BME280;61064;51.654;5.476;2022-12-16T12:01:56;101695.22;;;0.19;86.05
72921;BME280;61064;51.654;5.476;2022-12-16T12:04:42;101676.22;;;0.21;86.24
72921;BME280;61064;51.654;5.476;2022-12-16T12:07:56;101664.84;;;0.21;86.33
72921;BME280;61064;51.654;5.476;2022-12-16T12:11:07;101658.34;;;0.29;85.94
72921;BME280;61064;51.654;5.476;2022-12-16T12:14:14;101684.97;;;0.51;86.06
72921;BME280;61064;51.654;5.476;2022-12-16T12:20:03;101686.69;;;0.51;85.97
72921;BME280;61064;51.654;5.476;2022-12-16T12:22:58;101648.22;;;0.35;85.76
72921;BME280;61064;51.654;5.476;2022-12-16T12:26:04;101691.69;;;0.61;85.98
72921;BME280;61064;51.654;5.476;2022-12-16T12:32:43;101646.25;;;0.46;85.90
72921;BME280;61064;51.654;5.476;2022-12-16T12:35:50;101692.50;;;0.74;85.75
72921;BME280;61064;51.654;5.476;2022-12-16T12:45:22;101713.72;;;0.94;85.70
72921;BME280;61064;51.654;5.476;2022-12-16T12:51:58;101659.09;;;0.70;85.63
72921;BME280;61064;51.654;5.476;2022-12-16T12:58:22;101668.75;;;0.86;85.81
72921;BME280;61064;51.654;5.476;2022-12-16T13:01:23;101593.91;;;0.46;85.83
72921;BME280;61064;51.654;5.476;2022-12-16T13:04:24;101599.50;;;0.52;85.65
72921;BME280;61064;51.654;5.476;2022-12-16T13:07:12;101708.38;;;1.21;85.67
72921;BME280;61064;51.654;5.476;2022-12-16T13:16:10;101716.66;;;1.44;85.81
72921;BME280;61064;51.654;5.476;2022-12-16T13:19:42;101709.69;;;1.44;85.39
72921;BME280;61064;51.654;5.476;2022-12-16T13:22:37;101692.16;;;1.43;85.52
72921;BME280;61064;51.654;5.476;2022-12-16T13:26:03;101723.56;;;1.58;85.49
72921;BME280;61064;51.654;5.476;2022-12-16T13:32:15;101717.94;;;1.66;85.64
72921;BME280;61064;51.654;5.476;2022-12-16T13:37:57;101668.19;;;1.37;85.53
72921;BME280;61064;51.654;5.476;2022-12-16T13:41:00;101721.06;;;1.76;85.66
72921;BME280;61064;51.654;5.476;2022-12-16T13:43:48;101724.69;;;1.78;85.53
72921;BME280;61064;51.654;5.476;2022-12-16T13:46:51;101727.31;;;1.78;85.29
72921;BME280;61064;51.654;5.476;2022-12-16T13:49:54;101635.41;;;1.29;85.29
72921;BME280;61064;51.654;5.476;2022-12-16T13:52:55;101726.06;;;1.71;85.54
72921;BME280;61064;51.654;5.476;2022-12-16T13:58:41;101724.09;;;1.67;85.52
72921;BME280;61064;51.654;5.476;2022-12-16T14:01:57;101692.66;;;1.52;85.46
72921;BME280;61064;51.654;5.476;2022-12-16T14:04:55;101709.06;;;1.64;85.34
72921;BME280;61064;51.654;5.476;2022-12-16T14:07:39;101750.44;;;1.85;85.48
72921;BME280;61064;51.654;5.476;2022-12-16T14:10:35;101749.63;;;1.86;85.18
72921;BME280;61064;51.654;5.476;2022-12-16T14:13:45;101754.03;;;1.87;85.15
72921;BME280;61064;51.654;5.476;2022-12-16T14:17:03;101755.66;;;1.85;85.50
72921;BME280;61064;51.654;5.476;2022-12-16T14:22:52;101776.94;;;1.89;85.27
72921;BME280;61064;51.654;5.476;2022-12-16T14:25:41;101783.91;;;1.89;85.26
72921;BME280;61064;51.654;5.476;2022-12-16T14:28:37;101756.22;;;1.79;85.38
72921;BME280;61064;51.654;5.476;2022-12-16T14:31:26;101790.94;;;1.90;85.40
72921;BME280;61064;51.654;5.476;2022-12-16T14:34:28;101763.03;;;1.76;85.32
72921;BME280;61064;51.654;5.476;2022-12-16T14:37:18;101793.50;;;1.88;85.22
72921;BME280;61064;51.654;5.476;2022-12-16T14:40:04;101796.94;;;1.87;85.34
72921;BME280;61064;51.654;5.476;2022-12-16T14:42:51;101785.19;;;1.81;85.27
72921;BME280;61064;51.654;5.476;2022-12-16T14:45:37;101786.00;;;1.80;85.27
72921;BME280;61064;51.654;5.476;2022-12-16T14:51:28;101809.44;;;1.77;85.31
72921;BME280;61064;51.654;5.476;2022-12-16T14:57:30;101829.78;;;1.81;85.67
72921;BME280;61064;51.654;5.476;2022-12-16T15:00:18;101814.34;;;1.71;85.28
72921;BME280;61064;51.654;5.476;2022-12-16T15:03:23;101805.41;;;1.67;85.50
72921;BME280;61064;51.654;5.476;2022-12-16T15:06:13;101818.41;;;1.65;85.29
72921;BME280;61064;51.654;5.476;2022-12-16T15:09:03;101806.94;;;1.63;85.41
72921;BME280;61064;51.654;5.476;2022-12-16T15:11:50;101835.47;;;1.74;85.44
72921;BME280;61064;51.654;5.476;2022-12-16T15:14:37;101827.34;;;1.69;85.17
72921;BME280;61064;51.654;5.476;2022-12-16T15:20:51;101851.22;;;1.74;85.43
72921;BME280;61064;51.654;5.476;2022-12-16T15:23:39;101843.00;;;1.67;85.43
72921;BME280;61064;51.654;5.476;2022-12-16T15:26:25;101859.94;;;1.73;85.33
72921;BME280;61064;51.654;5.476;2022-12-16T15:29:40;101858.94;;;1.71;85.29
72921;BME280;61064;51.654;5.476;2022-12-16T15:35:09;101861.75;;;1.59;85.19
72921;BME280;61064;51.654;5.476;2022-12-16T15:37:54;101851.78;;;1.53;85.63
72921;BME280;61064;51.654;5.476;2022-12-16T15:40:39;101870.78;;;1.64;85.32
72921;BME280;61064;51.654;5.476;2022-12-16T15:43:29;101882.09;;;1.63;85.47
72921;BME280;61064;51.654;5.476;2022-12-16T15:46:23;101785.91;;;1.03;85.05